sensor_id;sensor_type;location;lat;lon;timestamp;pressure;altitude;pressure_sealevel;temperature;humidity
10718;BME280;13513;42.700;23.124;2022-07-10T00:00:54;92914.93;;;15.45;100.00
10718;BME280;13513;42.700;23.124;2022-07-10T00:03:25;92920.30;;;15.30;100.00
10718;BME280;13513;42.700;23.124;2022-07-10T00:05:56;92916.58;;;15.39;100.00
10718;BME280;13513;42.700;23.124;2022-07-10T00:08:26;92911.53;;;15.35;100.00
10718;BME280;13513;42.700;23.124;2022-07-10T00:10:57;92916.56;;;15.31;100.00
10718;BME280;13513;42.700;23.124;2022-07-10T00:13:29;92920.33;;;15.28;100.00
10718;BME280;13513;42.700;23.124;2022-07-10T00:16:00;92918.81;;;15.12;100.00
10718;BME280;13513;42.700;23.124;2022-07-10T00:18:30;92918.52;;;15.18;100.00
10718;BME280;13513;42.700;23.124;2022-07-10T00:21:01;92914.78;;;15.17;100.00
10718;BME280;13513;42.700;23.124;2022-07-10T00:23:32;92918.56;;;15.06;100.00
10718;BME280;13513;42.700;23.124;2022-07-10T00:26:03;92911.37;;;15.09;100.00
10718;BME280;13513;42.700;23.124;2022-07-10T00:28:34;92907.92;;;15.06;100.00
10718;BME280;13513;42.700;23.124;2022-07-10T00:31:06;92902.84;;;15.12;100.00
10718;BME280;13513;42.700;23.124;2022-07-10T00:33:37;92897.81;;;15.03;100.00
10718;BME280;13513;42.700;23.124;2022-07-10T00:36:08;92903.41;;;15.06;100.00
10718;BME280;13513;42.700;23.124;2022-07-10T00:38:38;92904.18;;;15.07;100.00
10718;BME280;13513;42.700;23.124;2022-07-10T00:41:09;92902.09;;;15.04;100.00
10718;BME280;13513;42.700;23.124;2022-07-10T00:43:53;92897.05;;;15.00;100.00
10718;BME280;13513;42.700;23.124;2022-07-10T00:46:25;92901.31;;;14.98;100.00
10718;BME280;13513;42.700;23.124;2022-07-10T00:48:56;92899.22;;;14.85;100.00
10718;BME280;13513;42.700;23.124;2022-07-10T00:51:29;92897.66;;;14.82;100.00
10718;BME280;13513;42.700;23.124;2022-07-10T00:53:59;92898.41;;;14.90;100.00
10718;BME280;13513;42.700;23.124;2022-07-10T00:56:31;92894.96;;;14.92;100.00
10718;BME280;13513;42.700;23.124;2022-07-10T00:59:02;92892.86;;;14.86;100.00
10718;BME280;13513;42.700;23.124;2022-07-10T01:01:34;92890.43;;;14.90;100.00
10718;BME280;13513;42.700;23.124;2022-07-10T01:04:10;92891.24;;;14.85;100.00
10718;BME280;13513;42.700;23.124;2022-07-10T01:06:40;92890.69;;;14.96;100.00
10718;BME280;13513;42.700;23.124;2022-07-10T01:09:11;92898.13;;;14.94;100.00
10718;BME280;13513;42.700;23.124;2022-07-10T01:11:42;92887.77;;;14.90;100.00
10718;BME280;13513;42.700;23.124;2022-07-10T01:14:12;92879.81;;;14.87;100.00
10718;BME280;13513;42.700;23.124;2022-07-10T01:16:42;92886.20;;;14.86;100.00
10718;BME280;13513;42.700;23.124;2022-07-10T01:19:15;92884.88;;;14.86;100.00
10718;BME280;13513;42.700;23.124;2022-07-10T01:21:46;92885.63;;;14.89;100.00
10718;BME280;13513;42.700;23.124;2022-07-10T01:24:17;92879.59;;;14.74;100.00
10718;BME280;13513;42.700;23.124;2022-07-10T01:26:49;92877.44;;;14.83;100.00
10718;BME280;13513;42.700;23.124;2022-07-10T01:29:21;92880.31;;;14.89;100.00
10718;BME280;13513;42.700;23.124;2022-07-10T01:31:52;92876.61;;;14.90;100.00
10718;BME280;13513;42.700;23.124;2022-07-10T01:34:23;92873.42;;;14.86;100.00
10718;BME280;13513;42.700;23.124;2022-07-10T01:36:54;92867.02;;;14.89;100.00
10718;BME280;13513;42.700;23.124;2022-07-10T01:39:25;92869.73;;;14.79;100.00
10718;BME280;13513;42.700;23.124;2022-07-10T01:41:56;92865.49;;;14.78;100.00
10718;BME280;13513;42.700;23.124;2022-07-10T01:44:27;92872.97;;;14.64;100.00
10718;BME280;13513;42.700;23.124;2022-07-10T01:46:58;92862.06;;;14.65;100.00
10718;BME280;13513;42.700;23.124;2022-07-10T01:49:28;92862.37;;;14.59;100.00
10718;BME280;13513;42.700;23.124;2022-07-10T01:52:00;92866.89;;;14.56;100.00
10718;BME280;13513;42.700;23.124;2022-07-10T01:54:31;92865.31;;;14.52;100.00
10718;BME280;13513;42.700;23.124;2022-07-10T01:57:01;92866.37;;;14.56;100.00
10718;BME280;13513;42.700;23.124;2022-07-10T01:59:32;92869.33;;;14.42;100.00
10718;BME280;13513;42.700;23.124;2022-07-10T02:02:02;92857.91;;;14.42;100.00
10718;BME280;13513;42.700;23.124;2022-07-10T02:04:33;92864.00;;;14.50;100.00
10718;BME280;13513;42.700;23.124;2022-07-10T02:07:14;92867.70;;;14.54;100.00
10718;BME280;13513;42.700;23.124;2022-07-10T02:09:45;92859.69;;;14.61;100.00
10718;BME280;13513;42.700;23.124;2022-07-10T02:12:15;92858.62;;;14.67;100.00
10718;BME280;13513;42.700;23.124;2022-07-10T02:14:46;92851.70;;;14.69;100.00
10718;BME280;13513;42.700;23.124;2022-07-10T02:17:18;92852.48;;;14.69;100.00
10718;BME280;13513;42.700;23.124;2022-07-10T02:19:47;92847.97;;;14.70;100.00
10718;BME280;13513;42.700;23.124;2022-07-10T02:22:18;92859.13;;;14.69;100.00
10718;BME280;13513;42.700;23.124;2022-07-10T02:24:49;92857.80;;;14.69;100.00
10718;BME280;13513;42.700;23.124;2022-07-10T02:27:20;92857.81;;;14.67;100.00
10718;BME280;13513;42.700;23.124;2022-07-10T02:29:51;92851.98;;;14.65;100.00
10718;BME280;13513;42.700;23.124;2022-07-10T02:32:22;92853.59;;;14.56;100.00
10718;BME280;13513;42.700;23.124;2022-07-10T02:34:53;92842.39;;;14.64;100.00
10718;BME280;13513;42.700;23.124;2022-07-10T02:37:23;92847.73;;;14.59;100.00
10718;BME280;13513;42.700;23.124;2022-07-10T02:39:54;92846.95;;;14.56;100.00
10718;BME280;13513;42.700;23.124;2022-07-10T02:42:24;92852.29;;;14.51;100.00
10718;BME280;13513;42.700;23.124;2022-07-10T02:44:54;92848.79;;;14.63;100.00
10718;BME280;13513;42.700;23.124;2022-07-10T02:47:24;92844.55;;;14.57;100.00
10718;BME280;13513;42.700;23.124;2022-07-10T02:49:55;92847.19;;;14.64;100.00
10718;BME280;13513;42.700;23.124;2022-07-10T02:52:25;92844.28;;;14.63;100.00
10718;BME280;13513;42.700;23.124;2022-07-10T02:54:56;92848.23;;;14.68;100.00
10718;BME280;13513;42.700;23.124;2022-07-10T02:57:27;92851.46;;;14.60;100.00
10718;BME280;13513;42.700;23.124;2022-07-10T02:59:58;92858.89;;;14.66;100.00
10718;BME280;13513;42.700;23.124;2022-07-10T03:02:28;92853.02;;;14.66;100.00
10718;BME280;13513;42.700;23.124;2022-07-10T03:04:59;92857.00;;;14.66;100.00
10718;BME280;13513;42.700;23.124;2022-07-10T03:07:30;92855.97;;;14.65;100.00
10718;BME280;13513;42.700;23.124;2022-07-10T03:10:00;92861.30;;;14.57;100.00
10718;BME280;13513;42.700;23.124;2022-07-10T03:12:31;92861.01;;;14.64;100.00
10718;BME280;13513;42.700;23.124;2022-07-10T03:15:03;92866.61;;;14.60;100.00
10718;BME280;13513;42.700;23.124;2022-07-10T03:17:33;92862.88;;;14.61;100.00
10718;BME280;13513;42.700;23.124;2022-07-10T03:20:05;92873.03;;;14.54;100.00
10718;BME280;13513;42.700;23.124;2022-07-10T03:22:37;92871.11;;;14.67;100.00
10718;BME280;13513;42.700;23.124;2022-07-10T03:25:08;92874.53;;;14.75;100.00
10718;BME280;13513;42.700;23.124;2022-07-10T03:27:39;92868.42;;;14.77;100.00
10718;BME280;13513;42.700;23.124;2022-07-10T03:30:11;92867.85;;;14.85;100.00
10718;BME280;13513;42.700;23.124;2022-07-10T03:32:42;92862.53;;;14.80;100.00
10718;BME280;13513;42.700;23.124;2022-07-10T03:35:13;92866.99;;;14.97;100.00
10718;BME280;13513;42.700;23.124;2022-07-10T03:37:44;92861.59;;;15.12;100.00
10718;BME280;13513;42.700;23.124;2022-07-10T03:40:15;92860.48;;;15.18;100.00
10718;BME280;13513;42.700;23.124;2022-07-10T03:42:46;92862.83;;;15.24;100.00
10718;BME280;13513;42.700;23.124;2022-07-10T03:45:17;92861.73;;;15.38;100.00
10718;BME280;13513;42.700;23.124;2022-07-10T03:47:48;92855.75;;;15.53;100.00
10718;BME280;13513;42.700;23.124;2022-07-10T03:50:19;92858.30;;;15.68;100.00
10718;BME280;13513;42.700;23.124;2022-07-10T03:52:50;92859.02;;;15.79;100.00
10718;BME280;13513;42.700;23.124;2022-07-10T03:55:21;92854.01;;;16.03;100.00
10718;BME280;13513;42.700;23.124;2022-07-10T03:57:52;92851.03;;;16.08;100.00
10718;BME280;13513;42.700;23.124;2022-07-10T04:00:24;92847.57;;;16.10;100.00
10718;BME280;13513;42.700;23.124;2022-07-10T04:02:59;92847.39;;;16.27;100.00
10718;BME280;13513;42.700;23.124;2022-07-10T04:05:31;92839.05;;;16.34;100.00
10718;BME280;13513;42.700;23.124;2022-07-10T04:08:03;92841.66;;;16.41;100.00
10718;BME280;13513;42.700;23.124;2022-07-10T04:10:32;92845.13;;;16.39;100.00
10718;BME280;13513;42.700;23.124;2022-07-10T04:13:02;92840.05;;;16.43;100.00
10718;BME280;13513;42.700;23.124;2022-07-10T04:15:32;92840.44;;;16.55;100.00
10718;BME280;13513;42.700;23.124;2022-07-10T04:18:03;92843.87;;;16.58;100.00
10718;BME280;13513;42.700;23.124;2022-07-10T04:20:34;92841.14;;;16.63;100.00
10718;BME280;13513;42.700;23.124;2022-07-10T04:23:05;92836.75;;;16.74;100.00
10718;BME280;13513;42.700;23.124;2022-07-10T04:25:36;92831.16;;;16.94;100.00
10718;BME280;13513;42.700;23.124;2022-07-10T04:28:07;92829.75;;;17.20;100.00
10718;BME280;13513;42.700;23.124;2022-07-10T04:30:39;92827.62;;;17.41;100.00
10718;BME280;13513;42.700;23.124;2022-07-10T04:33:11;92821.28;;;17.53;100.00
10718;BME280;13513;42.700;23.124;2022-07-10T04:35:42;92821.83;;;17.68;100.00
10718;BME280;13513;42.700;23.124;2022-07-10T04:38:12;92823.16;;;17.84;100.00
10718;BME280;13513;42.700;23.124;2022-07-10T04:40:43;92818.66;;;17.98;100.00
10718;BME280;13513;42.700;23.124;2022-07-10T04:43:14;92816.84;;;18.26;100.00
10718;BME280;13513;42.700;23.124;2022-07-10T04:45:45;92817.84;;;18.46;100.00
10718;BME280;13513;42.700;23.124;2022-07-10T04:48:15;92818.84;;;18.63;100.00
10718;BME280;13513;42.700;23.124;2022-07-10T04:50:45;92821.39;;;18.95;100.00
10718;BME280;13513;42.700;23.124;2022-07-10T04:53:16;92828.52;;;19.27;100.00
10718;BME280;13513;42.700;23.124;2022-07-10T04:55:46;92825.59;;;19.73;99.22
10718;BME280;13513;42.700;23.124;2022-07-10T04:58:19;92822.13;;;20.38;95.79
10718;BME280;13513;42.700;23.124;2022-07-10T05:00:50;92816.03;;;21.05;90.54
10718;BME280;13513;42.700;23.124;2022-07-10T05:03:21;92815.20;;;21.86;85.73
10718;BME280;13513;42.700;23.124;2022-07-10T05:05:52;92818.97;;;22.59;78.52
10718;BME280;13513;42.700;23.124;2022-07-10T05:08:22;92816.61;;;23.09;76.34
10718;BME280;13513;42.700;23.124;2022-07-10T05:10:52;92812.62;;;22.78;72.16
10718;BME280;13513;42.700;23.124;2022-07-10T05:13:23;92815.67;;;22.91;74.36
10718;BME280;13513;42.700;23.124;2022-07-10T05:15:53;92815.58;;;22.93;71.61
10718;BME280;13513;42.700;23.124;2022-07-10T05:18:25;92820.84;;;22.90;71.30
10718;BME280;13513;42.700;23.124;2022-07-10T05:20:55;92817.74;;;22.71;71.07
10718;BME280;13513;42.700;23.124;2022-07-10T05:23:26;92818.84;;;22.38;73.26
10718;BME280;13513;42.700;23.124;2022-07-10T05:25:57;92821.19;;;22.08;73.80
10718;BME280;13513;42.700;23.124;2022-07-10T05:28:28;92824.41;;;21.57;78.87
10718;BME280;13513;42.700;23.124;2022-07-10T05:30:58;92823.58;;;21.22;76.85
10718;BME280;13513;42.700;23.124;2022-07-10T05:33:28;92819.11;;;20.90;78.05
10718;BME280;13513;42.700;23.124;2022-07-10T05:35:58;92830.13;;;20.80;80.86
10718;BME280;13513;42.700;23.124;2022-07-10T05:38:30;92827.00;;;20.67;82.56
10718;BME280;13513;42.700;23.124;2022-07-10T05:41:01;92828.55;;;20.48;82.44
10718;BME280;13513;42.700;23.124;2022-07-10T05:43:30;92824.46;;;20.20;81.89
10718;BME280;13513;42.700;23.124;2022-07-10T05:46:01;92824.77;;;20.19;85.10
10718;BME280;13513;42.700;23.124;2022-07-10T05:48:33;92827.64;;;20.22;85.27
10718;BME280;13513;42.700;23.124;2022-07-10T05:51:04;92824.45;;;20.31;88.24
10718;BME280;13513;42.700;23.124;2022-07-10T05:53:34;92822.66;;;20.38;82.90
10718;BME280;13513;42.700;23.124;2022-07-10T05:56:06;92820.58;;;20.15;85.03
10718;BME280;13513;42.700;23.124;2022-07-10T05:58:37;92817.31;;;20.27;87.28
10718;BME280;13513;42.700;23.124;2022-07-10T06:01:07;92813.89;;;20.24;86.22
10718;BME280;13513;42.700;23.124;2022-07-10T06:03:38;92812.27;;;20.56;84.87
10718;BME280;13513;42.700;23.124;2022-07-10T06:06:09;92819.27;;;20.74;80.09
10718;BME280;13513;42.700;23.124;2022-07-10T06:08:40;92815.70;;;20.87;77.94
10718;BME280;13513;42.700;23.124;2022-07-10T06:11:11;92812.48;;;21.15;79.39
10718;BME280;13513;42.700;23.124;2022-07-10T06:13:43;92811.00;;;21.37;79.86
10718;BME280;13513;42.700;23.124;2022-07-10T06:16:14;92813.97;;;22.06;77.42
10718;BME280;13513;42.700;23.124;2022-07-10T06:18:45;92814.28;;;23.23;68.62
10718;BME280;13513;42.700;23.124;2022-07-10T06:21:16;92808.89;;;24.19;62.11
10718;BME280;13513;42.700;23.124;2022-07-10T06:23:47;92800.69;;;24.60;56.21
10718;BME280;13513;42.700;23.124;2022-07-10T06:26:18;92807.61;;;24.88;57.21
10718;BME280;13513;42.700;23.124;2022-07-10T06:28:49;92810.00;;;24.95;54.69
10718;BME280;13513;42.700;23.124;2022-07-10T06:31:19;92807.30;;;25.19;52.73
10718;BME280;13513;42.700;23.124;2022-07-10T06:33:50;92808.31;;;25.21;53.57
10718;BME280;13513;42.700;23.124;2022-07-10T06:36:21;92804.83;;;25.50;54.68
10718;BME280;13513;42.700;23.124;2022-07-10T06:38:52;92805.88;;;25.85;52.59
10718;BME280;13513;42.700;23.124;2022-07-10T06:41:23;92806.37;;;26.15;50.29
10718;BME280;13513;42.700;23.124;2022-07-10T06:43:54;92807.53;;;26.41;47.82
10718;BME280;13513;42.700;23.124;2022-07-10T06:46:25;92800.34;;;26.55;48.18
10718;BME280;13513;42.700;23.124;2022-07-10T06:48:56;92803.47;;;26.85;46.40
10718;BME280;13513;42.700;23.124;2022-07-10T06:51:28;92803.69;;;27.17;46.75
10718;BME280;13513;42.700;23.124;2022-07-10T06:53:59;92802.86;;;26.91;47.79
10718;BME280;13513;42.700;23.124;2022-07-10T06:56:30;92808.92;;;26.79;47.38
10718;BME280;13513;42.700;23.124;2022-07-10T06:59:01;92803.38;;;26.59;46.99
10718;BME280;13513;42.700;23.124;2022-07-10T07:01:31;92810.14;;;26.66;46.43
10718;BME280;13513;42.700;23.124;2022-07-10T07:04:02;92799.89;;;26.53;47.93
10718;BME280;13513;42.700;23.124;2022-07-10T07:06:32;92799.77;;;26.77;48.67
10718;BME280;13513;42.700;23.124;2022-07-10T07:09:03;92800.24;;;27.41;46.27
10718;BME280;13513;42.700;23.124;2022-07-10T07:11:33;92803.33;;;28.09;45.74
10718;BME280;13513;42.700;23.124;2022-07-10T07:14:06;92800.91;;;28.32;43.91
10718;BME280;13513;42.700;23.124;2022-07-10T07:16:37;92794.11;;;28.04;44.60
10718;BME280;13513;42.700;23.124;2022-07-10T07:19:11;92790.80;;;28.04;42.72
10718;BME280;13513;42.700;23.124;2022-07-10T07:21:48;92793.67;;;28.30;43.82
10718;BME280;13513;42.700;23.124;2022-07-10T07:24:35;92788.45;;;28.60;43.55
10718;BME280;13513;42.700;23.124;2022-07-10T07:27:06;92794.67;;;28.70;43.19
10718;BME280;13513;42.700;23.124;2022-07-10T07:29:37;92793.81;;;28.98;43.37
10718;BME280;13513;42.700;23.124;2022-07-10T07:32:08;92793.63;;;29.55;42.38
10718;BME280;13513;42.700;23.124;2022-07-10T07:34:39;92796.85;;;29.60;41.25
10718;BME280;13513;42.700;23.124;2022-07-10T07:37:09;92800.73;;;29.72;41.15
10718;BME280;13513;42.700;23.124;2022-07-10T07:39:40;92797.94;;;29.82;40.77
10718;BME280;13513;42.700;23.124;2022-07-10T07:42:11;92790.73;;;30.23;39.66
10718;BME280;13513;42.700;23.124;2022-07-10T07:44:42;92792.91;;;30.73;39.00
10718;BME280;13513;42.700;23.124;2022-07-10T07:47:13;92783.70;;;30.84;38.23
10718;BME280;13513;42.700;23.124;2022-07-10T07:49:44;92781.55;;;31.47;36.56
10718;BME280;13513;42.700;23.124;2022-07-10T07:52:17;92783.91;;;31.76;36.23
10718;BME280;13513;42.700;23.124;2022-07-10T07:54:47;92782.50;;;31.99;35.44
10718;BME280;13513;42.700;23.124;2022-07-10T07:57:17;92783.39;;;32.14;35.21
10718;BME280;13513;42.700;23.124;2022-07-10T07:59:48;92783.39;;;32.14;35.21
10718;BME280;13513;42.700;23.124;2022-07-10T08:02:19;92782.52;;;32.30;34.99
10718;BME280;13513;42.700;23.124;2022-07-10T08:04:50;92775.23;;;32.24;36.01
10718;BME280;13513;42.700;23.124;2022-07-10T08:07:21;92773.48;;;32.74;34.89
10718;BME280;13513;42.700;23.124;2022-07-10T08:09:52;92773.48;;;32.74;34.89
10718;BME280;13513;42.700;23.124;2022-07-10T08:12:23;92779.46;;;33.14;34.20
10718;BME280;13513;42.700;23.124;2022-07-10T08:14:54;92767.16;;;33.18;34.12
10718;BME280;13513;42.700;23.124;2022-07-10T08:17:26;92780.42;;;32.98;32.44
10718;BME280;13513;42.700;23.124;2022-07-10T08:19:56;92772.18;;;32.33;35.50
10718;BME280;13513;42.700;23.124;2022-07-10T08:22:26;92777.44;;;31.71;34.91
10718;BME280;13513;42.700;23.124;2022-07-10T08:24:57;92779.88;;;31.59;34.10
10718;BME280;13513;42.700;23.124;2022-07-10T08:27:27;92778.83;;;31.51;33.81
10718;BME280;13513;42.700;23.124;2022-07-10T08:30:00;92775.00;;;31.82;33.75
10718;BME280;13513;42.700;23.124;2022-07-10T08:32:30;92772.82;;;32.46;34.21
10718;BME280;13513;42.700;23.124;2022-07-10T08:35:00;92780.02;;;32.38;32.21
10718;BME280;13513;42.700;23.124;2022-07-10T08:37:41;92778.27;;;32.43;32.83
10718;BME280;13513;42.700;23.124;2022-07-10T08:40:02;92769.25;;;32.90;33.41
10718;BME280;13513;42.700;23.124;2022-07-10T08:42:34;92765.02;;;33.88;32.68
10718;BME280;13513;42.700;23.124;2022-07-10T08:45:07;92777.77;;;34.64;31.54
10718;BME280;13513;42.700;23.124;2022-07-10T08:47:39;92772.27;;;35.40;30.07
10718;BME280;13513;42.700;23.124;2022-07-10T08:50:16;92771.73;;;35.59;28.48
10718;BME280;13513;42.700;23.124;2022-07-10T08:52:58;92771.41;;;35.72;27.49
10718;BME280;13513;42.700;23.124;2022-07-10T08:55:26;92771.20;;;35.78;28.19
10718;BME280;13513;42.700;23.124;2022-07-10T08:57:57;92771.83;;;35.45;27.09
10718;BME280;13513;42.700;23.124;2022-07-10T09:00:28;92780.07;;;34.05;28.99
10718;BME280;13513;42.700;23.124;2022-07-10T09:02:58;92778.77;;;32.73;30.47
10718;BME280;13513;42.700;23.124;2022-07-10T09:05:27;92770.55;;;32.73;30.19
10718;BME280;13513;42.700;23.124;2022-07-10T09:07:59;92774.61;;;34.02;30.02
10718;BME280;13513;42.700;23.124;2022-07-10T09:10:29;92764.18;;;32.96;29.04
10718;BME280;13513;42.700;23.124;2022-07-10T09:13:01;92769.14;;;33.67;32.16
10718;BME280;13513;42.700;23.124;2022-07-10T09:15:32;92764.35;;;34.23;31.44
10718;BME280;13513;42.700;23.124;2022-07-10T09:18:05;92763.66;;;33.74;30.66
10718;BME280;13513;42.700;23.124;2022-07-10T09:20:38;92765.19;;;32.42;31.86
10718;BME280;13513;42.700;23.124;2022-07-10T09:23:19;92764.21;;;31.26;32.78
10718;BME280;13513;42.700;23.124;2022-07-10T09:25:55;92763.70;;;30.73;34.25
10718;BME280;13513;42.700;23.124;2022-07-10T09:28:26;92752.58;;;30.92;33.66
10718;BME280;13513;42.700;23.124;2022-07-10T09:30:57;92748.36;;;30.82;35.09
10718;BME280;13513;42.700;23.124;2022-07-10T09:33:29;92750.23;;;30.58;35.46
10718;BME280;13513;42.700;23.124;2022-07-10T09:36:08;92751.20;;;30.23;32.88
10718;BME280;13513;42.700;23.124;2022-07-10T09:38:49;92748.52;;;30.13;34.92
10718;BME280;13513;42.700;23.124;2022-07-10T09:41:22;92750.89;;;29.85;36.16
10718;BME280;13513;42.700;23.124;2022-07-10T09:46:35;92743.27;;;28.97;38.15
10718;BME280;13513;42.700;23.124;2022-07-10T09:49:12;92745.27;;;29.09;38.64
10718;BME280;13513;42.700;23.124;2022-07-10T09:51:44;92745.17;;;28.61;39.21
10718;BME280;13513;42.700;23.124;2022-07-10T09:54:14;92746.41;;;28.25;40.18
10718;BME280;13513;42.700;23.124;2022-07-10T09:56:46;92752.22;;;27.61;39.61
10718;BME280;13513;42.700;23.124;2022-07-10T09:59:18;92750.14;;;27.29;38.99
10718;BME280;13513;42.700;23.124;2022-07-10T10:01:52;92695.75;;;26.76;42.39
10718;BME280;13513;42.700;23.124;2022-07-10T10:04:25;92746.95;;;26.71;41.56
10718;BME280;13513;42.700;23.124;2022-07-10T10:07:00;92745.73;;;26.25;42.38
10718;BME280;13513;42.700;23.124;2022-07-10T10:09:40;92752.80;;;26.30;43.07
10718;BME280;13513;42.700;23.124;2022-07-10T10:12:21;92757.55;;;26.05;45.27
10718;BME280;13513;42.700;23.124;2022-07-10T10:14:51;92756.00;;;25.92;42.54
10718;BME280;13513;42.700;23.124;2022-07-10T10:17:24;92753.78;;;25.94;44.83
10718;BME280;13513;42.700;23.124;2022-07-10T10:19:57;92755.83;;;25.79;45.27
10718;BME280;13513;42.700;23.124;2022-07-10T10:22:45;92745.72;;;25.58;46.20
10718;BME280;13513;42.700;23.124;2022-07-10T10:25:17;92737.22;;;26.33;46.22
10718;BME280;13513;42.700;23.124;2022-07-10T10:27:48;92737.87;;;26.95;47.14
10718;BME280;13513;42.700;23.124;2022-07-10T10:30:19;92730.91;;;27.63;45.29
10718;BME280;13513;42.700;23.124;2022-07-10T10:32:50;92729.64;;;28.33;42.34
10718;BME280;13513;42.700;23.124;2022-07-10T10:35:41;92731.95;;;28.50;40.77
10718;BME280;13513;42.700;23.124;2022-07-10T10:38:12;92729.03;;;28.49;41.20
10718;BME280;13513;42.700;23.124;2022-07-10T10:40:44;92729.91;;;28.66;40.42
10718;BME280;13513;42.700;23.124;2022-07-10T10:43:20;92729.58;;;28.58;41.18
10718;BME280;13513;42.700;23.124;2022-07-10T10:45:52;92725.77;;;28.85;41.27
10718;BME280;13513;42.700;23.124;2022-07-10T10:48:23;92721.22;;;28.92;38.53
10718;BME280;13513;42.700;23.124;2022-07-10T10:50:54;92722.48;;;29.08;41.49
10718;BME280;13513;42.700;23.124;2022-07-10T10:53:31;92721.00;;;28.78;39.55
10718;BME280;13513;42.700;23.124;2022-07-10T10:58:45;92723.25;;;28.12;39.58
10718;BME280;13513;42.700;23.124;2022-07-10T11:01:25;92725.03;;;27.95;41.56
10718;BME280;13513;42.700;23.124;2022-07-10T11:06:44;92716.55;;;27.53;41.99
10718;BME280;13513;42.700;23.124;2022-07-10T11:12:10;92713.70;;;27.65;41.00
10718;BME280;13513;42.700;23.124;2022-07-10T11:14:45;92708.99;;;27.71;40.66
10718;BME280;13513;42.700;23.124;2022-07-10T11:17:16;92705.60;;;27.49;43.93
10718;BME280;13513;42.700;23.124;2022-07-10T11:19:46;92709.78;;;27.28;45.42
10718;BME280;13513;42.700;23.124;2022-07-10T11:22:43;92706.08;;;27.36;44.51
10718;BME280;13513;42.700;23.124;2022-07-10T11:25:28;92701.00;;;27.34;42.83
10718;BME280;13513;42.700;23.124;2022-07-10T11:28:06;92710.88;;;27.17;41.79
10718;BME280;13513;42.700;23.124;2022-07-10T11:30:54;92704.07;;;27.33;42.64
10718;BME280;13513;42.700;23.124;2022-07-10T11:33:24;92705.81;;;27.50;42.81
10718;BME280;13513;42.700;23.124;2022-07-10T11:35:55;92695.47;;;27.75;42.45
10718;BME280;13513;42.700;23.124;2022-07-10T11:38:27;92692.41;;;28.24;42.45
10718;BME280;13513;42.700;23.124;2022-07-10T11:40:57;92694.06;;;28.60;42.52
10718;BME280;13513;42.700;23.124;2022-07-10T11:43:29;92692.80;;;28.45;40.41
10718;BME280;13513;42.700;23.124;2022-07-10T11:45:59;92692.98;;;28.65;40.27
10718;BME280;13513;42.700;23.124;2022-07-10T11:48:32;92694.67;;;28.73;39.97
10718;BME280;13513;42.700;23.124;2022-07-10T11:51:02;92701.02;;;28.58;39.86
10718;BME280;13513;42.700;23.124;2022-07-10T11:53:33;92706.19;;;28.44;39.20
10718;BME280;13513;42.700;23.124;2022-07-10T11:56:04;92698.62;;;28.34;38.70
10718;BME280;13513;42.700;23.124;2022-07-10T11:58:35;92703.09;;;28.55;39.47
10718;BME280;13513;42.700;23.124;2022-07-10T12:01:06;92703.50;;;28.66;39.60
10718;BME280;13513;42.700;23.124;2022-07-10T12:03:37;92701.38;;;28.56;37.14
10718;BME280;13513;42.700;23.124;2022-07-10T12:06:08;92707.55;;;28.44;38.35
10718;BME280;13513;42.700;23.124;2022-07-10T12:08:45;92705.11;;;28.39;39.15
10718;BME280;13513;42.700;23.124;2022-07-10T12:11:18;92705.83;;;28.36;38.47
10718;BME280;13513;42.700;23.124;2022-07-10T12:13:50;92699.99;;;28.24;39.66
10718;BME280;13513;42.700;23.124;2022-07-10T12:16:21;92710.28;;;28.15;40.38
10718;BME280;13513;42.700;23.124;2022-07-10T12:18:51;92706.58;;;28.04;39.90
10718;BME280;13513;42.700;23.124;2022-07-10T12:21:22;92700.16;;;28.12;41.45
10718;BME280;13513;42.700;23.124;2022-07-10T12:23:53;92696.64;;;28.12;41.20
10718;BME280;13513;42.700;23.124;2022-07-10T12:26:31;92699.87;;;28.40;42.65
10718;BME280;13513;42.700;23.124;2022-07-10T12:28:57;92694.70;;;28.63;40.51
10718;BME280;13513;42.700;23.124;2022-07-10T12:31:29;92700.55;;;28.65;38.15
10718;BME280;13513;42.700;23.124;2022-07-10T12:34:03;92703.91;;;28.68;35.41
10718;BME280;13513;42.700;23.124;2022-07-10T12:36:52;92699.84;;;28.46;36.39
10718;BME280;13513;42.700;23.124;2022-07-10T12:39:19;92701.06;;;28.61;35.99
10718;BME280;13513;42.700;23.124;2022-07-10T12:42:06;92710.52;;;28.80;34.36
10718;BME280;13513;42.700;23.124;2022-07-10T12:44:45;92706.80;;;29.11;35.02
10718;BME280;13513;42.700;23.124;2022-07-10T12:47:13;92708.78;;;29.27;35.13
10718;BME280;13513;42.700;23.124;2022-07-10T12:50:03;92701.39;;;29.01;34.92
10718;BME280;13513;42.700;23.124;2022-07-10T12:52:37;92701.77;;;28.90;34.42
10718;BME280;13513;42.700;23.124;2022-07-10T12:57:55;92703.11;;;28.36;36.26
10718;BME280;13513;42.700;23.124;2022-07-10T13:00:32;92700.72;;;28.12;38.35
10718;BME280;13513;42.700;23.124;2022-07-10T13:03:08;92701.86;;;28.20;37.06
10718;BME280;13513;42.700;23.124;2022-07-10T13:05:40;92698.55;;;28.21;36.47
10718;BME280;13513;42.700;23.124;2022-07-10T13:08:15;92694.57;;;28.15;36.59
10718;BME280;13513;42.700;23.124;2022-07-10T13:10:51;92689.61;;;28.30;36.54
10718;BME280;13513;42.700;23.124;2022-07-10T13:13:21;92690.02;;;28.51;37.61
10718;BME280;13513;42.700;23.124;2022-07-10T13:15:53;92693.69;;;28.49;38.74
10718;BME280;13513;42.700;23.124;2022-07-10T13:18:29;92689.00;;;28.40;36.49
10718;BME280;13513;42.700;23.124;2022-07-10T13:21:00;92694.63;;;28.09;36.83
10718;BME280;13513;42.700;23.124;2022-07-10T13:23:31;92694.25;;;27.53;36.01